sensor_id;sensor_type;location;lat;lon;timestamp;P1;durP1;ratioP1;P2;durP2;ratioP2
34200;SDS011;20469;55.638;37.670;2024-03-02T00:00:49;60.80;;;33.63;;
34200;SDS011;20469;55.638;37.670;2024-03-02T00:03:18;57.30;;;32.00;;
34200;SDS011;20469;55.638;37.670;2024-03-02T00:05:50;62.13;;;33.83;;
34200;SDS011;20469;55.638;37.670;2024-03-02T00:08:22;59.58;;;34.00;;
34200;SDS011;20469;55.638;37.670;2024-03-02T00:10:53;60.90;;;33.97;;
34200;SDS011;20469;55.638;37.670;2024-03-02T00:13:24;56.72;;;33.38;;
34200;SDS011;20469;55.638;37.670;2024-03-02T00:15:53;55.58;;;32.58;;
34200;SDS011;20469;55.638;37.670;2024-03-02T00:18:26;56.65;;;33.22;;
34200;SDS011;20469;55.638;37.670;2024-03-02T00:20:55;60.42;;;34.53;;
34200;SDS011;20469;55.638;37.670;2024-03-02T00:23:32;61.85;;;34.20;;
34200;SDS011;20469;55.638;37.670;2024-03-02T00:26:03;61.95;;;33.67;;
34200;SDS011;20469;55.638;37.670;2024-03-02T00:28:32;61.53;;;34.00;;
34200;SDS011;20469;55.638;37.670;2024-03-02T00:31:05;54.13;;;33.20;;
34200;SDS011;20469;55.638;37.670;2024-03-02T00:33:42;58.40;;;32.55;;
34200;SDS011;20469;55.638;37.670;2024-03-02T00:36:12;58.80;;;33.85;;
34200;SDS011;20469;55.638;37.670;2024-03-02T00:38:46;60.08;;;33.15;;
34200;SDS011;20469;55.638;37.670;2024-03-02T00:41:19;54.00;;;32.92;;
34200;SDS011;20469;55.638;37.670;2024-03-02T00:43:56;57.50;;;33.03;;
34200;SDS011;20469;55.638;37.670;2024-03-02T00:46:25;61.78;;;33.60;;
34200;SDS011;20469;55.638;37.670;2024-03-02T00:48:53;58.88;;;33.40;;
34200;SDS011;20469;55.638;37.670;2024-03-02T00:51:23;56.55;;;33.95;;
34200;SDS011;20469;55.638;37.670;2024-03-02T00:53:52;59.55;;;34.47;;
34200;SDS011;20469;55.638;37.670;2024-03-02T00:56:23;59.53;;;34.42;;
34200;SDS011;20469;55.638;37.670;2024-03-02T00:58:51;58.80;;;34.15;;
34200;SDS011;20469;55.638;37.670;2024-03-02T01:01:19;57.35;;;32.85;;
34200;SDS011;20469;55.638;37.670;2024-03-02T01:03:48;56.40;;;32.80;;
34200;SDS011;20469;55.638;37.670;2024-03-02T01:06:16;57.92;;;33.55;;
34200;SDS011;20469;55.638;37.670;2024-03-02T01:08:45;62.80;;;33.22;;
34200;SDS011;20469;55.638;37.670;2024-03-02T01:11:17;56.65;;;32.97;;
34200;SDS011;20469;55.638;37.670;2024-03-02T01:13:45;61.55;;;32.60;;
34200;SDS011;20469;55.638;37.670;2024-03-02T01:16:14;58.85;;;32.30;;
34200;SDS011;20469;55.638;37.670;2024-03-02T01:18:42;61.65;;;34.50;;
34200;SDS011;20469;55.638;37.670;2024-03-02T01:21:10;56.83;;;32.05;;
34200;SDS011;20469;55.638;37.670;2024-03-02T01:23:38;59.20;;;33.13;;
34200;SDS011;20469;55.638;37.670;2024-03-02T01:26:06;61.30;;;32.90;;
34200;SDS011;20469;55.638;37.670;2024-03-02T01:28:34;58.42;;;33.90;;
34200;SDS011;20469;55.638;37.670;2024-03-02T01:31:01;60.15;;;31.50;;
34200;SDS011;20469;55.638;37.670;2024-03-02T01:33:29;61.97;;;33.65;;
34200;SDS011;20469;55.638;37.670;2024-03-02T01:35:57;57.28;;;33.00;;
34200;SDS011;20469;55.638;37.670;2024-03-02T01:38:25;56.40;;;32.47;;
34200;SDS011;20469;55.638;37.670;2024-03-02T01:40:55;57.45;;;33.47;;
34200;SDS011;20469;55.638;37.670;2024-03-02T01:43:24;54.08;;;31.38;;
34200;SDS011;20469;55.638;37.670;2024-03-02T01:45:55;58.28;;;32.90;;
34200;SDS011;20469;55.638;37.670;2024-03-02T01:48:23;58.78;;;32.65;;
34200;SDS011;20469;55.638;37.670;2024-03-02T01:50:51;59.67;;;32.20;;
34200;SDS011;20469;55.638;37.670;2024-03-02T01:53:19;63.90;;;32.90;;
34200;SDS011;20469;55.638;37.670;2024-03-02T01:55:47;59.75;;;30.35;;
34200;SDS011;20469;55.638;37.670;2024-03-02T01:58:14;60.88;;;29.83;;
34200;SDS011;20469;55.638;37.670;2024-03-02T02:00:43;57.00;;;29.75;;
34200;SDS011;20469;55.638;37.670;2024-03-02T02:03:12;60.85;;;30.58;;
34200;SDS011;20469;55.638;37.670;2024-03-02T02:05:41;54.42;;;30.38;;
34200;SDS011;20469;55.638;37.670;2024-03-02T02:08:10;65.47;;;30.45;;
34200;SDS011;20469;55.638;37.670;2024-03-02T02:10:37;59.63;;;30.70;;
34200;SDS011;20469;55.638;37.670;2024-03-02T02:13:05;59.17;;;31.42;;
34200;SDS011;20469;55.638;37.670;2024-03-02T02:15:35;58.75;;;31.42;;
34200;SDS011;20469;55.638;37.670;2024-03-02T02:18:04;58.58;;;31.52;;
34200;SDS011;20469;55.638;37.670;2024-03-02T02:20:32;57.03;;;31.15;;
34200;SDS011;20469;55.638;37.670;2024-03-02T02:23:02;59.90;;;32.58;;
34200;SDS011;20469;55.638;37.670;2024-03-02T02:25:32;61.55;;;34.35;;
34200;SDS011;20469;55.638;37.670;2024-03-02T02:28:00;62.03;;;33.20;;
34200;SDS011;20469;55.638;37.670;2024-03-02T02:30:30;60.75;;;33.63;;
34200;SDS011;20469;55.638;37.670;2024-03-02T02:32:58;60.83;;;33.22;;
34200;SDS011;20469;55.638;37.670;2024-03-02T02:35:26;55.75;;;31.77;;
34200;SDS011;20469;55.638;37.670;2024-03-02T02:37:56;60.75;;;33.50;;
34200;SDS011;20469;55.638;37.670;2024-03-02T02:40:25;61.28;;;33.92;;
34200;SDS011;20469;55.638;37.670;2024-03-02T02:42:53;59.15;;;33.88;;
34200;SDS011;20469;55.638;37.670;2024-03-02T02:45:21;62.50;;;33.40;;
34200;SDS011;20469;55.638;37.670;2024-03-02T02:47:49;65.25;;;34.63;;
34200;SDS011;20469;55.638;37.670;2024-03-02T02:50:17;57.42;;;32.47;;
34200;SDS011;20469;55.638;37.670;2024-03-02T02:52:45;62.80;;;33.97;;
34200;SDS011;20469;55.638;37.670;2024-03-02T02:55:12;61.20;;;34.42;;
34200;SDS011;20469;55.638;37.670;2024-03-02T02:57:43;63.08;;;33.33;;
34200;SDS011;20469;55.638;37.670;2024-03-02T03:00:12;60.83;;;34.70;;
34200;SDS011;20469;55.638;37.670;2024-03-02T03:02:43;60.33;;;34.45;;
34200;SDS011;20469;55.638;37.670;2024-03-02T03:05:12;59.70;;;33.85;;
34200;SDS011;20469;55.638;37.670;2024-03-02T03:07:41;65.80;;;34.30;;
34200;SDS011;20469;55.638;37.670;2024-03-02T03:10:11;63.85;;;34.63;;
34200;SDS011;20469;55.638;37.670;2024-03-02T03:12:41;64.65;;;35.55;;
34200;SDS011;20469;55.638;37.670;2024-03-02T03:15:12;63.05;;;34.25;;
34200;SDS011;20469;55.638;37.670;2024-03-02T03:17:41;62.60;;;34.47;;
34200;SDS011;20469;55.638;37.670;2024-03-02T03:20:09;62.75;;;33.75;;
34200;SDS011;20469;55.638;37.670;2024-03-02T03:22:37;64.13;;;33.05;;
34200;SDS011;20469;55.638;37.670;2024-03-02T03:25:05;61.63;;;34.92;;
34200;SDS011;20469;55.638;37.670;2024-03-02T03:27:35;55.28;;;32.65;;
34200;SDS011;20469;55.638;37.670;2024-03-02T03:30:04;62.25;;;33.60;;
34200;SDS011;20469;55.638;37.670;2024-03-02T03:32:34;58.80;;;34.53;;
34200;SDS011;20469;55.638;37.670;2024-03-02T03:35:02;61.63;;;33.75;;
34200;SDS011;20469;55.638;37.670;2024-03-02T03:37:30;61.17;;;33.65;;
34200;SDS011;20469;55.638;37.670;2024-03-02T03:40:02;58.55;;;33.90;;
34200;SDS011;20469;55.638;37.670;2024-03-02T03:42:37;57.95;;;33.08;;
34200;SDS011;20469;55.638;37.670;2024-03-02T03:45:06;62.30;;;32.78;;
34200;SDS011;20469;55.638;37.670;2024-03-02T03:47:34;60.47;;;33.08;;
34200;SDS011;20469;55.638;37.670;2024-03-02T03:50:03;56.97;;;33.53;;
34200;SDS011;20469;55.638;37.670;2024-03-02T03:52:34;62.83;;;32.65;;
34200;SDS011;20469;55.638;37.670;2024-03-02T03:55:02;66.78;;;34.85;;
34200;SDS011;20469;55.638;37.670;2024-03-02T03:57:30;59.75;;;33.85;;
34200;SDS011;20469;55.638;37.670;2024-03-02T03:59:58;65.82;;;34.42;;
34200;SDS011;20469;55.638;37.670;2024-03-02T04:02:27;62.40;;;33.70;;
34200;SDS011;20469;55.638;37.670;2024-03-02T04:04:55;64.10;;;34.13;;
34200;SDS011;20469;55.638;37.670;2024-03-02T04:07:23;62.65;;;34.90;;
34200;SDS011;20469;55.638;37.670;2024-03-02T04:09:51;62.90;;;35.28;;
34200;SDS011;20469;55.638;37.670;2024-03-02T04:12:19;67.90;;;36.83;;
34200;SDS011;20469;55.638;37.670;2024-03-02T04:14:47;58.92;;;33.67;;
34200;SDS011;20469;55.638;37.670;2024-03-02T04:17:15;59.08;;;33.88;;
34200;SDS011;20469;55.638;37.670;2024-03-02T04:19:42;63.30;;;34.92;;
34200;SDS011;20469;55.638;37.670;2024-03-02T04:22:10;67.47;;;36.60;;
34200;SDS011;20469;55.638;37.670;2024-03-02T04:24:50;63.28;;;36.25;;
34200;SDS011;20469;55.638;37.670;2024-03-02T04:27:19;67.78;;;36.75;;
34200;SDS011;20469;55.638;37.670;2024-03-02T04:29:48;64.25;;;35.42;;
34200;SDS011;20469;55.638;37.670;2024-03-02T04:32:16;64.43;;;35.47;;
34200;SDS011;20469;55.638;37.670;2024-03-02T04:34:46;61.80;;;35.38;;
34200;SDS011;20469;55.638;37.670;2024-03-02T04:37:14;65.00;;;36.15;;
34200;SDS011;20469;55.638;37.670;2024-03-02T04:39:44;64.68;;;36.65;;
34200;SDS011;20469;55.638;37.670;2024-03-02T04:42:12;63.13;;;35.80;;
34200;SDS011;20469;55.638;37.670;2024-03-02T04:44:40;66.32;;;35.58;;
34200;SDS011;20469;55.638;37.670;2024-03-02T04:47:08;65.65;;;37.25;;
34200;SDS011;20469;55.638;37.670;2024-03-02T04:49:36;67.28;;;36.38;;
34200;SDS011;20469;55.638;37.670;2024-03-02T04:52:04;66.72;;;38.42;;
34200;SDS011;20469;55.638;37.670;2024-03-02T04:54:32;64.32;;;37.80;;
34200;SDS011;20469;55.638;37.670;2024-03-02T04:57:01;66.18;;;36.78;;
34200;SDS011;20469;55.638;37.670;2024-03-02T04:59:29;65.45;;;37.05;;
34200;SDS011;20469;55.638;37.670;2024-03-02T05:01:57;65.38;;;36.88;;
34200;SDS011;20469;55.638;37.670;2024-03-02T05:04:25;66.53;;;37.92;;
34200;SDS011;20469;55.638;37.670;2024-03-02T05:06:53;63.10;;;36.45;;
34200;SDS011;20469;55.638;37.670;2024-03-02T05:09:24;65.47;;;36.92;;
34200;SDS011;20469;55.638;37.670;2024-03-02T05:11:51;67.53;;;36.72;;
34200;SDS011;20469;55.638;37.670;2024-03-02T05:14:38;64.40;;;37.00;;
34200;SDS011;20469;55.638;37.670;2024-03-02T05:17:06;63.30;;;37.53;;
34200;SDS011;20469;55.638;37.670;2024-03-02T05:19:34;66.20;;;37.28;;
34200;SDS011;20469;55.638;37.670;2024-03-02T05:22:02;68.57;;;38.15;;
34200;SDS011;20469;55.638;37.670;2024-03-02T05:24:30;67.32;;;38.42;;
34200;SDS011;20469;55.638;37.670;2024-03-02T05:26:58;69.25;;;37.67;;
34200;SDS011;20469;55.638;37.670;2024-03-02T05:29:26;63.55;;;37.28;;
34200;SDS011;20469;55.638;37.670;2024-03-02T05:31:53;66.90;;;38.33;;
34200;SDS011;20469;55.638;37.670;2024-03-02T05:34:21;69.43;;;40.97;;
34200;SDS011;20469;55.638;37.670;2024-03-02T05:36:49;64.90;;;38.05;;
34200;SDS011;20469;55.638;37.670;2024-03-02T05:39:17;66.47;;;38.53;;
34200;SDS011;20469;55.638;37.670;2024-03-02T05:41:45;68.90;;;39.28;;
34200;SDS011;20469;55.638;37.670;2024-03-02T05:44:13;63.95;;;38.88;;
34200;SDS011;20469;55.638;37.670;2024-03-02T05:46:44;68.63;;;38.78;;
34200;SDS011;20469;55.638;37.670;2024-03-02T05:49:12;63.65;;;38.65;;
34200;SDS011;20469;55.638;37.670;2024-03-02T05:51:40;62.95;;;38.67;;
34200;SDS011;20469;55.638;37.670;2024-03-02T05:54:08;63.47;;;37.97;;
34200;SDS011;20469;55.638;37.670;2024-03-02T05:56:36;67.22;;;38.75;;
34200;SDS011;20469;55.638;37.670;2024-03-02T05:59:04;69.35;;;38.10;;
34200;SDS011;20469;55.638;37.670;2024-03-02T06:01:39;65.22;;;39.05;;
34200;SDS011;20469;55.638;37.670;2024-03-02T06:04:07;62.15;;;38.03;;
34200;SDS011;20469;55.638;37.670;2024-03-02T06:06:36;58.47;;;36.00;;
34200;SDS011;20469;55.638;37.670;2024-03-02T06:09:04;60.90;;;35.75;;
34200;SDS011;20469;55.638;37.670;2024-03-02T06:11:35;59.42;;;35.13;;
34200;SDS011;20469;55.638;37.670;2024-03-02T06:14:05;63.15;;;37.38;;
34200;SDS011;20469;55.638;37.670;2024-03-02T06:16:34;64.18;;;36.85;;
34200;SDS011;20469;55.638;37.670;2024-03-02T06:19:03;64.50;;;37.22;;
34200;SDS011;20469;55.638;37.670;2024-03-02T06:21:31;64.28;;;36.78;;
34200;SDS011;20469;55.638;37.670;2024-03-02T06:23:59;65.13;;;38.40;;
34200;SDS011;20469;55.638;37.670;2024-03-02T06:26:28;63.08;;;38.10;;
34200;SDS011;20469;55.638;37.670;2024-03-02T06:28:57;63.78;;;38.22;;
34200;SDS011;20469;55.638;37.670;2024-03-02T06:31:25;61.38;;;37.88;;
34200;SDS011;20469;55.638;37.670;2024-03-02T06:33:53;68.40;;;39.13;;
34200;SDS011;20469;55.638;37.670;2024-03-02T06:36:22;71.82;;;40.20;;
34200;SDS011;20469;55.638;37.670;2024-03-02T06:38:50;70.80;;;39.97;;
34200;SDS011;20469;55.638;37.670;2024-03-02T06:41:18;64.53;;;38.45;;
34200;SDS011;20469;55.638;37.670;2024-03-02T06:43:46;62.97;;;38.45;;
34200;SDS011;20469;55.638;37.670;2024-03-02T06:46:14;63.00;;;38.17;;
34200;SDS011;20469;55.638;37.670;2024-03-02T06:48:42;63.67;;;39.75;;
34200;SDS011;20469;55.638;37.670;2024-03-02T06:51:10;62.78;;;38.42;;
34200;SDS011;20469;55.638;37.670;2024-03-02T06:53:37;62.83;;;39.10;;
34200;SDS011;20469;55.638;37.670;2024-03-02T06:56:06;65.25;;;38.75;;
34200;SDS011;20469;55.638;37.670;2024-03-02T06:58:38;66.35;;;39.20;;
34200;SDS011;20469;55.638;37.670;2024-03-02T07:01:05;65.50;;;39.13;;
34200;SDS011;20469;55.638;37.670;2024-03-02T07:03:33;67.88;;;40.47;;
34200;SDS011;20469;55.638;37.670;2024-03-02T07:06:01;64.65;;;38.65;;
34200;SDS011;20469;55.638;37.670;2024-03-02T07:08:29;64.03;;;39.47;;
34200;SDS011;20469;55.638;37.670;2024-03-02T07:10:57;66.80;;;39.72;;
34200;SDS011;20469;55.638;37.670;2024-03-02T07:13:25;65.68;;;37.65;;
34200;SDS011;20469;55.638;37.670;2024-03-02T07:15:53;66.95;;;40.03;;
34200;SDS011;20469;55.638;37.670;2024-03-02T07:18:31;65.50;;;38.30;;
34200;SDS011;20469;55.638;37.670;2024-03-02T07:21:00;65.82;;;39.65;;
34200;SDS011;20469;55.638;37.670;2024-03-02T07:23:28;66.93;;;40.22;;
34200;SDS011;20469;55.638;37.670;2024-03-02T07:25:56;66.28;;;38.38;;
34200;SDS011;20469;55.638;37.670;2024-03-02T07:28:29;65.97;;;40.70;;
34200;SDS011;20469;55.638;37.670;2024-03-02T07:31:02;71.05;;;40.97;;
34200;SDS011;20469;55.638;37.670;2024-03-02T07:33:31;70.70;;;40.08;;
34200;SDS011;20469;55.638;37.670;2024-03-02T07:35:59;65.65;;;39.38;;
34200;SDS011;20469;55.638;37.670;2024-03-02T07:38:31;66.93;;;39.72;;
34200;SDS011;20469;55.638;37.670;2024-03-02T07:41:01;62.17;;;40.13;;
34200;SDS011;20469;55.638;37.670;2024-03-02T07:43:29;62.45;;;38.78;;
34200;SDS011;20469;55.638;37.670;2024-03-02T07:48:44;66.82;;;39.90;;
34200;SDS011;20469;55.638;37.670;2024-03-02T07:51:12;63.75;;;39.60;;
34200;SDS011;20469;55.638;37.670;2024-03-02T07:53:41;64.65;;;38.45;;
34200;SDS011;20469;55.638;37.670;2024-03-02T07:56:09;62.53;;;39.17;;
34200;SDS011;20469;55.638;37.670;2024-03-02T07:58:37;64.18;;;40.47;;
34200;SDS011;20469;55.638;37.670;2024-03-02T08:01:05;67.57;;;40.60;;
34200;SDS011;20469;55.638;37.670;2024-03-02T08:03:33;67.03;;;38.50;;
34200;SDS011;20469;55.638;37.670;2024-03-02T08:06:01;65.97;;;39.17;;
34200;SDS011;20469;55.638;37.670;2024-03-02T08:08:29;65.78;;;38.58;;
34200;SDS011;20469;55.638;37.670;2024-03-02T08:10:57;60.40;;;39.97;;
34200;SDS011;20469;55.638;37.670;2024-03-02T08:13:27;62.92;;;38.97;;
34200;SDS011;20469;55.638;37.670;2024-03-02T08:15:55;59.72;;;39.35;;
34200;SDS011;20469;55.638;37.670;2024-03-02T08:18:23;59.65;;;38.60;;
34200;SDS011;20469;55.638;37.670;2024-03-02T08:20:52;55.40;;;37.22;;
34200;SDS011;20469;55.638;37.670;2024-03-02T08:23:20;56.40;;;37.70;;
34200;SDS011;20469;55.638;37.670;2024-03-02T08:25:48;53.70;;;37.60;;
34200;SDS011;20469;55.638;37.670;2024-03-02T08:28:16;57.30;;;37.58;;
34200;SDS011;20469;55.638;37.670;2024-03-02T08:30:44;53.92;;;36.75;;
34200;SDS011;20469;55.638;37.670;2024-03-02T08:33:12;53.97;;;37.28;;
34200;SDS011;20469;55.638;37.670;2024-03-02T08:35:39;57.75;;;37.85;;
34200;SDS011;20469;55.638;37.670;2024-03-02T08:38:08;55.88;;;37.75;;
34200;SDS011;20469;55.638;37.670;2024-03-02T08:40:35;50.97;;;36.58;;
34200;SDS011;20469;55.638;37.670;2024-03-02T08:43:03;51.80;;;35.38;;
34200;SDS011;20469;55.638;37.670;2024-03-02T08:45:31;52.33;;;35.38;;
34200;SDS011;20469;55.638;37.670;2024-03-02T08:48:00;53.97;;;34.08;;
34200;SDS011;20469;55.638;37.670;2024-03-02T08:50:28;54.25;;;34.40;;
34200;SDS011;20469;55.638;37.670;2024-03-02T08:52:56;56.30;;;36.05;;
34200;SDS011;20469;55.638;37.670;2024-03-02T08:55:24;53.70;;;33.33;;
34200;SDS011;20469;55.638;37.670;2024-03-02T08:57:52;52.70;;;33.38;;
34200;SDS011;20469;55.638;37.670;2024-03-02T09:00:20;56.55;;;34.22;;
34200;SDS011;20469;55.638;37.670;2024-03-02T09:02:48;57.88;;;34.28;;
34200;SDS011;20469;55.638;37.670;2024-03-02T09:05:18;55.67;;;35.50;;
34200;SDS011;20469;55.638;37.670;2024-03-02T09:07:46;56.33;;;34.67;;
34200;SDS011;20469;55.638;37.670;2024-03-02T09:10:14;57.15;;;33.13;;
34200;SDS011;20469;55.638;37.670;2024-03-02T09:12:42;56.65;;;34.78;;
34200;SDS011;20469;55.638;37.670;2024-03-02T09:15:10;55.97;;;32.92;;
34200;SDS011;20469;55.638;37.670;2024-03-02T09:17:38;58.03;;;33.22;;
34200;SDS011;20469;55.638;37.670;2024-03-02T09:20:07;56.80;;;31.55;;
34200;SDS011;20469;55.638;37.670;2024-03-02T09:22:35;58.55;;;34.83;;
34200;SDS011;20469;55.638;37.670;2024-03-02T09:25:02;55.83;;;32.08;;
34200;SDS011;20469;55.638;37.670;2024-03-02T09:27:31;55.80;;;33.78;;
34200;SDS011;20469;55.638;37.670;2024-03-02T09:29:58;56.42;;;35.55;;
34200;SDS011;20469;55.638;37.670;2024-03-02T09:32:29;60.78;;;36.33;;
34200;SDS011;20469;55.638;37.670;2024-03-02T09:34:58;58.60;;;34.40;;
34200;SDS011;20469;55.638;37.670;2024-03-02T09:37:26;55.22;;;35.50;;
34200;SDS011;20469;55.638;37.670;2024-03-02T09:39:55;52.85;;;34.78;;
34200;SDS011;20469;55.638;37.670;2024-03-02T09:42:23;59.72;;;37.13;;
34200;SDS011;20469;55.638;37.670;2024-03-02T09:44:52;61.05;;;35.85;;
34200;SDS011;20469;55.638;37.670;2024-03-02T09:47:20;56.75;;;36.72;;
34200;SDS011;20469;55.638;37.670;2024-03-02T09:49:48;55.40;;;34.60;;
34200;SDS011;20469;55.638;37.670;2024-03-02T09:52:16;57.42;;;38.65;;
34200;SDS011;20469;55.638;37.670;2024-03-02T09:54:44;62.30;;;39.60;;
34200;SDS011;20469;55.638;37.670;2024-03-02T09:57:15;57.25;;;38.55;;
34200;SDS011;20469;55.638;37.670;2024-03-02T09:59:43;61.13;;;39.03;;
34200;SDS011;20469;55.638;37.670;2024-03-02T10:02:12;55.78;;;35.95;;
34200;SDS011;20469;55.638;37.670;2024-03-02T10:04:40;58.05;;;37.95;;
34200;SDS011;20469;55.638;37.670;2024-03-02T10:09:39;50.05;;;34.78;;
34200;SDS011;20469;55.638;37.670;2024-03-02T10:12:08;56.25;;;36.05;;
34200;SDS011;20469;55.638;37.670;2024-03-02T10:14:36;50.67;;;34.10;;
34200;SDS011;20469;55.638;37.670;2024-03-02T10:17:05;56.83;;;35.70;;
34200;SDS011;20469;55.638;37.670;2024-03-02T10:19:33;58.83;;;36.40;;
34200;SDS011;20469;55.638;37.670;2024-03-02T10:22:04;55.05;;;35.47;;
34200;SDS011;20469;55.638;37.670;2024-03-02T10:24:43;54.22;;;34.90;;
34200;SDS011;20469;55.638;37.670;2024-03-02T10:27:16;49.70;;;32.55;;
34200;SDS011;20469;55.638;37.670;2024-03-02T10:29:47;44.72;;;28.58;;
34200;SDS011;20469;55.638;37.670;2024-03-02T10:32:15;41.63;;;29.98;;
34200;SDS011;20469;55.638;37.670;2024-03-02T10:34:44;42.83;;;28.77;;
34200;SDS011;20469;55.638;37.670;2024-03-02T10:37:12;40.60;;;28.80;;
34200;SDS011;20469;55.638;37.670;2024-03-02T10:39:40;43.70;;;28.58;;
34200;SDS011;20469;55.638;37.670;2024-03-02T10:42:08;40.33;;;27.17;;
34200;SDS011;20469;55.638;37.670;2024-03-02T10:44:36;38.30;;;26.42;;
34200;SDS011;20469;55.638;37.670;2024-03-02T10:47:04;34.88;;;25.98;;
34200;SDS011;20469;55.638;37.670;2024-03-02T10:49:32;37.88;;;26.98;;
34200;SDS011;20469;55.638;37.670;2024-03-02T10:52:00;38.45;;;28.15;;
34200;SDS011;20469;55.638;37.670;2024-03-02T10:54:29;38.55;;;28.00;;
34200;SDS011;20469;55.638;37.670;2024-03-02T10:57:04;45.95;;;30.63;;
34200;SDS011;20469;55.638;37.670;2024-03-02T10:59:33;45.70;;;31.73;;
34200;SDS011;20469;55.638;37.670;2024-03-02T11:02:02;46.17;;;30.77;;
34200;SDS011;20469;55.638;37.670;2024-03-02T11:04:32;44.80;;;30.98;;
34200;SDS011;20469;55.638;37.670;2024-03-02T11:09:32;42.15;;;29.20;;
34200;SDS011;20469;55.638;37.670;2024-03-02T11:12:15;40.72;;;28.35;;
34200;SDS011;20469;55.638;37.670;2024-03-02T11:14:45;40.70;;;28.27;;
34200;SDS011;20469;55.638;37.670;2024-03-02T11:17:13;41.88;;;27.88;;
34200;SDS011;20469;55.638;37.670;2024-03-02T11:19:44;41.53;;;26.38;;
34200;SDS011;20469;55.638;37.670;2024-03-02T11:22:12;38.58;;;25.00;;
34200;SDS011;20469;55.638;37.670;2024-03-02T11:24:59;42.70;;;26.25;;
34200;SDS011;20469;55.638;37.670;2024-03-02T11:33:08;42.50;;;27.48;;
34200;SDS011;20469;55.638;37.670;2024-03-02T11:35:42;41.78;;;26.38;;
34200;SDS011;20469;55.638;37.670;2024-03-02T11:38:12;41.83;;;28.00;;
34200;SDS011;20469;55.638;37.670;2024-03-02T11:40:40;39.60;;;24.80;;
34200;SDS011;20469;55.638;37.670;2024-03-02T11:43:09;44.08;;;26.67;;
34200;SDS011;20469;55.638;37.670;2024-03-02T11:45:38;40.05;;;25.25;;
34200;SDS011;20469;55.638;37.670;2024-03-02T11:48:09;37.67;;;24.02;;
34200;SDS011;20469;55.638;37.670;2024-03-02T11:50:40;43.92;;;24.77;;
34200;SDS011;20469;55.638;37.670;2024-03-02T11:53:09;30.08;;;19.27;;
34200;SDS011;20469;55.638;37.670;2024-03-02T11:55:38;37.92;;;23.00;;
34200;SDS011;20469;55.638;37.670;2024-03-02T11:58:16;35.15;;;22.60;;
34200;SDS011;20469;55.638;37.670;2024-03-02T12:00:50;35.28;;;22.48;;
34200;SDS011;20469;55.638;37.670;2024-03-02T12:03:18;37.08;;;22.50;;
34200;SDS011;20469;55.638;37.670;2024-03-02T12:05:48;36.97;;;22.10;;
34200;SDS011;20469;55.638;37.670;2024-03-02T12:08:17;34.67;;;21.45;;
34200;SDS011;20469;55.638;37.670;2024-03-02T12:11:00;37.05;;;23.05;;
34200;SDS011;20469;55.638;37.670;2024-03-02T12:13:30;36.55;;;22.00;;
34200;SDS011;20469;55.638;37.670;2024-03-02T12:15:58;36.28;;;22.45;;
34200;SDS011;20469;55.638;37.670;2024-03-02T12:18:27;35.40;;;21.77;;
34200;SDS011;20469;55.638;37.670;2024-03-02T12:20:54;39.47;;;21.98;;
34200;SDS011;20469;55.638;37.670;2024-03-02T12:23:26;37.88;;;22.17;;
34200;SDS011;20469;55.638;37.670;2024-03-02T12:25:53;32.67;;;21.48;;
34200;SDS011;20469;55.638;37.670;2024-03-02T12:28:22;34.13;;;22.45;;
34200;SDS011;20469;55.638;37.670;2024-03-02T12:30:49;34.05;;;22.58;;
34200;SDS011;20469;55.638;37.670;2024-03-02T12:33:18;34.78;;;23.08;;
34200;SDS011;20469;55.638;37.670;2024-03-02T12:35:48;32.72;;;21.15;;
34200;SDS011;20469;55.638;37.670;2024-03-02T12:38:16;35.53;;;23.58;;
34200;SDS011;20469;55.638;37.670;2024-03-02T12:40:44;34.10;;;23.55;;
34200;SDS011;20469;55.638;37.670;2024-03-02T12:43:12;31.33;;;21.58;;
34200;SDS011;20469;55.638;37.670;2024-03-02T12:45:39;27.70;;;20.58;;
34200;SDS011;20469;55.638;37.670;2024-03-02T12:48:08;28.90;;;19.65;;
34200;SDS011;20469;55.638;37.670;2024-03-02T12:50:36;23.10;;;17.48;;
34200;SDS011;20469;55.638;37.670;2024-03-02T12:53:04;24.35;;;16.63;;
34200;SDS011;20469;55.638;37.670;2024-03-02T12:55:32;24.27;;;16.05;;
34200;SDS011;20469;55.638;37.670;2024-03-02T12:58:00;24.60;;;15.07;;
34200;SDS011;20469;55.638;37.670;2024-03-02T13:00:29;24.08;;;16.00;;
34200;SDS011;20469;55.638;37.670;2024-03-02T13:03:01;24.80;;;16.33;;
34200;SDS011;20469;55.638;37.670;2024-03-02T13:05:30;24.92;;;16.60;;
34200;SDS011;20469;55.638;37.670;2024-03-02T13:07:58;28.08;;;16.55;;
34200;SDS011;20469;55.638;37.670;2024-03-02T13:10:27;28.52;;;15.90;;
34200;SDS011;20469;55.638;37.670;2024-03-02T13:12:55;22.50;;;14.52;;
34200;SDS011;20469;55.638;37.670;2024-03-02T13:15:25;26.20;;;14.82;;
34200;SDS011;20469;55.638;37.670;2024-03-02T13:17:54;22.73;;;14.10;;
34200;SDS011;20469;55.638;37.670;2024-03-02T13:22:54;20.55;;;12.32;;
34200;SDS011;20469;55.638;37.670;2024-03-02T13:25:22;24.98;;;14.35;;
34200;SDS011;20469;55.638;37.670;2024-03-02T13:27:50;25.15;;;14.77;;
34200;SDS011;20469;55.638;37.670;2024-03-02T13:30:18;22.83;;;15.02;;
34200;SDS011;20469;55.638;37.670;2024-03-02T13:32:46;22.13;;;14.05;;
34200;SDS011;20469;55.638;37.670;2024-03-02T13:35:14;22.98;;;14.80;;
34200;SDS011;20469;55.638;37.670;2024-03-02T13:37:43;25.63;;;14.55;;
34200;SDS011;20469;55.638;37.670;2024-03-02T13:40:10;22.45;;;14.32;;
34200;SDS011;20469;55.638;37.670;2024-03-02T13:42:45;26.42;;;14.18;;
34200;SDS011;20469;55.638;37.670;2024-03-02T13:45:13;23.92;;;14.43;;
34200;SDS011;20469;55.638;37.670;2024-03-02T13:47:43;21.88;;;13.65;;
34200;SDS011;20469;55.638;37.670;2024-03-02T13:50:10;23.42;;;14.02;;
34200;SDS011;20469;55.638;37.670;2024-03-02T13:52:38;23.75;;;13.93;;
34200;SDS011;20469;55.638;37.670;2024-03-02T13:55:06;22.42;;;13.52;;
34200;SDS011;20469;55.638;37.670;2024-03-02T13:57:34;27.13;;;15.00;;
34200;SDS011;20469;55.638;37.670;2024-03-02T14:00:02;25.17;;;15.30;;
34200;SDS011;20469;55.638;37.670;2024-03-02T14:02:37;24.77;;;15.75;;
34200;SDS011;20469;55.638;37.670;2024-03-02T14:05:05;25.17;;;16.23;;
34200;SDS011;20469;55.638;37.670;2024-03-02T14:07:34;25.00;;;15.70;;
34200;SDS011;20469;55.638;37.670;2024-03-02T14:10:02;26.95;;;16.02;;
34200;SDS011;20469;55.638;37.670;2024-03-02T14:12:30;24.48;;;15.50;;
34200;SDS011;20469;55.638;37.670;2024-03-02T14:14:58;24.30;;;15.20;;
34200;SDS011;20469;55.638;37.670;2024-03-02T14:17:31;22.33;;;15.30;;
34200;SDS011;20469;55.638;37.670;2024-03-02T14:19:59;23.88;;;15.68;;
34200;SDS011;20469;55.638;37.670;2024-03-02T14:22:27;28.77;;;14.98;;
34200;SDS011;20469;55.638;37.670;2024-03-02T14:24:55;27.42;;;15.93;;
34200;SDS011;20469;55.638;37.670;2024-03-02T14:27:24;26.33;;;15.65;;
34200;SDS011;20469;55.638;37.670;2024-03-02T14:30:13;28.27;;;15.50;;
34200;SDS011;20469;55.638;37.670;2024-03-02T14:32:41;28.50;;;15.10;;
34200;SDS011;20469;55.638;37.670;2024-03-02T14:35:09;28.85;;;15.52;;